Terminal Aerodrome Forecast
Issued by NWS Wakefield, VA

Home | Current Version | Previous Version | Text Only | Print | Product List | Glossary On
Versions: 1 2 3 4 5 6 7 8 9 10 11 12 13 14 15 16
000
FTUS41 KAKQ 152300
TAFORF
TAF
KORF 152337Z 1600/1624 18006KT P6SM OVC028
     FM160500 20006KT P6SM BKN020 OVC040
     FM161000 25006KT P6SM BKN012 OVC015
     FM161400 34006KT P6SM SCT015 BKN030
     FM161700 35008KT P6SM FEW020 BKN070=

USA.gov is the U.S. government's official web portal to all federal, state and local government web resources and services.